Terminal Aerodrome Forecast
Issued by NWS North Platte, NE

Home | Current Version | Previous Version | Text Only | Print | Product List | Glossary Off
Versions: 1 2 3 4 5 6 7 8 9 10 11 12 13 14 15

928
FTUS43 KLBF 191647 AAA
TAFVTN
TAF AMD
KVTN 191647Z 1917/2012 19016G24KT P6SM BKN018
     FM192200 22015G22KT P6SM SCT200
     FM192300 25014G21KT P6SM SCT200
     FM200100 28013G19KT P6SM SCT250
     FM200300 31014G21KT P6SM BKN200
     FM200700 29010KT P6SM SCT200=

USA.gov is the U.S. government's official web portal to all federal, state and local government web resources and services.